createdAt,value
2017-12-21T00:00:25.868Z,1.30
2017-12-21T00:02:54.220Z,1.60
2017-12-21T00:05:23.160Z,1.70
2017-12-21T00:07:51.599Z,1.63
2017-12-21T00:10:20.458Z,1.50
2017-12-21T00:12:49.641Z,1.30
2017-12-21T00:15:19.098Z,1.57
2017-12-21T00:17:48.803Z,1.63
2017-12-21T00:20:18.255Z,1.57
2017-12-21T00:22:47.186Z,1.87
2017-12-21T00:25:16.305Z,1.50
2017-12-21T00:27:45.277Z,1.70
2017-12-21T00:30:15.037Z,1.60
2017-12-21T00:32:43.907Z,1.53
2017-12-21T00:35:12.276Z,1.60
2017-12-21T00:37:40.524Z,1.30
2017-12-21T00:40:09.249Z,1.80
2017-12-21T00:42:38.440Z,1.30
2017-12-21T00:45:06.977Z,1.30
2017-12-21T00:47:35.998Z,1.30
2017-12-21T00:50:04.496Z,1.33
2017-12-21T00:52:33.308Z,1.57
2017-12-21T00:55:03.669Z,1.50
2017-12-21T00:57:31.977Z,1.23
2017-12-21T01:00:00.637Z,1.10
2017-12-21T01:02:29.705Z,1.47
2017-12-21T01:04:58.000Z,1.93
2017-12-21T01:07:29.200Z,1.53
2017-12-21T01:09:57.818Z,1.57
2017-12-21T01:12:26.224Z,1.53
2017-12-21T01:14:55.146Z,2.43
2017-12-21T01:17:23.245Z,1.40
2017-12-21T01:19:51.764Z,1.30
2017-12-21T01:22:21.209Z,1.80
2017-12-21T01:24:50.549Z,1.50
2017-12-21T01:27:19.753Z,1.50
2017-12-21T01:29:48.540Z,1.70
2017-12-21T01:32:16.919Z,1.63
2017-12-21T01:34:45.287Z,1.50
2017-12-21T01:37:14.294Z,1.27
2017-12-21T01:39:42.660Z,1.37
2017-12-21T01:42:12.099Z,1.33
2017-12-21T01:44:40.340Z,1.60
2017-12-21T01:47:09.049Z,1.80
2017-12-21T01:49:37.968Z,1.43
2017-12-21T01:52:07.582Z,1.30
2017-12-21T01:54:37.387Z,1.50
2017-12-21T01:57:06.519Z,1.60
2017-12-21T01:59:35.757Z,1.33
2017-12-21T02:02:04.500Z,1.60
2017-12-21T02:04:33.111Z,1.40
2017-12-21T02:07:02.074Z,1.43
2017-12-21T02:09:31.498Z,1.60
2017-12-21T02:12:00.157Z,1.03
2017-12-21T02:14:29.118Z,1.60
2017-12-21T02:16:58.828Z,1.50
2017-12-21T02:19:27.761Z,1.30
2017-12-21T02:21:58.009Z,1.63
2017-12-21T02:24:26.612Z,1.20
2017-12-21T02:26:55.446Z,1.60
2017-12-21T02:29:24.087Z,1.53
2017-12-21T02:31:53.223Z,1.50
2017-12-21T02:34:22.307Z,1.20
2017-12-21T02:36:50.877Z,1.30
2017-12-21T02:39:20.729Z,1.40
2017-12-21T02:41:50.159Z,1.20
2017-12-21T02:44:19.497Z,1.43
2017-12-21T02:46:48.817Z,1.47
2017-12-21T02:49:17.159Z,1.37
2017-12-21T02:51:45.890Z,1.20
2017-12-21T02:54:15.147Z,1.30
2017-12-21T02:56:43.756Z,1.37
2017-12-21T02:59:12.460Z,1.30
2017-12-21T03:01:41.837Z,1.63
2017-12-21T03:04:10.110Z,1.50
2017-12-21T03:06:40.447Z,1.37
2017-12-21T03:09:09.005Z,1.47
2017-12-21T03:11:38.354Z,1.30
2017-12-21T03:14:07.316Z,1.30
2017-12-21T03:16:36.110Z,1.23
2017-12-21T03:19:05.349Z,1.17
2017-12-21T03:21:34.151Z,1.50
2017-12-21T03:24:02.877Z,1.53
2017-12-21T03:26:31.363Z,1.50
2017-12-21T03:28:59.917Z,1.47
2017-12-21T03:31:28.086Z,1.40
2017-12-21T03:33:56.773Z,1.30
2017-12-21T03:36:26.428Z,1.50
2017-12-21T03:38:54.990Z,1.40
2017-12-21T03:41:23.242Z,1.40
2017-12-21T03:43:52.956Z,1.77
2017-12-21T03:46:21.365Z,3.67
2017-12-21T03:48:50.548Z,1.43
2017-12-21T03:51:19.324Z,1.50
2017-12-21T03:53:47.601Z,2.40
2017-12-21T03:56:16.037Z,1.37
2017-12-21T03:58:45.135Z,1.57
2017-12-21T04:01:14.450Z,1.33
2017-12-21T04:03:42.722Z,2.07
2017-12-21T04:06:11.510Z,1.23
2017-12-21T04:08:40.505Z,1.13
2017-12-21T04:11:09.995Z,1.57
2017-12-21T04:13:38.550Z,5.00
2017-12-21T04:16:07.268Z,1.30
2017-12-21T04:18:36.876Z,1.50
2017-12-21T04:21:05.576Z,1.30
2017-12-21T04:23:34.078Z,1.17
2017-12-21T04:26:04.080Z,1.30
2017-12-21T04:28:33.339Z,1.33
2017-12-21T04:31:01.766Z,4.77
2017-12-21T04:33:29.909Z,1.07
2017-12-21T04:35:58.538Z,1.23
2017-12-21T04:38:26.868Z,1.23
2017-12-21T04:40:56.038Z,1.67
2017-12-21T04:43:24.607Z,1.33
2017-12-21T04:45:54.859Z,1.40
2017-12-21T04:48:23.120Z,1.30
2017-12-21T04:50:51.813Z,1.47
2017-12-21T04:53:20.818Z,1.40
2017-12-21T04:55:50.086Z,1.37
2017-12-21T04:58:20.146Z,1.30
2017-12-21T05:00:48.451Z,1.70
2017-12-21T05:03:17.129Z,1.40
2017-12-21T05:05:46.520Z,1.50
2017-12-21T05:08:16.380Z,2.57
2017-12-21T05:10:46.538Z,2.43
2017-12-21T05:13:15.595Z,3.80
2017-12-21T05:15:44.323Z,9.70
2017-12-21T05:18:12.667Z,2.97
2017-12-21T05:20:41.279Z,4.20
2017-12-21T05:23:11.278Z,3.10
2017-12-21T05:25:39.548Z,4.57
2017-12-21T05:28:09.129Z,3.90
2017-12-21T05:30:37.987Z,3.13
2017-12-21T05:33:06.268Z,3.20
2017-12-21T05:35:35.675Z,3.30
2017-12-21T05:38:04.129Z,6.03
2017-12-21T05:40:32.366Z,4.37
2017-12-21T05:43:02.917Z,4.87
2017-12-21T05:45:31.843Z,4.07
2017-12-21T05:48:00.939Z,4.63
2017-12-21T05:50:29.689Z,4.90
2017-12-21T05:52:58.218Z,3.50
2017-12-21T05:55:28.653Z,4.30
2017-12-21T05:57:57.667Z,5.60
2017-12-21T06:00:27.516Z,4.77
2017-12-21T06:02:55.989Z,3.50
2017-12-21T06:05:24.879Z,4.37
2017-12-21T06:07:53.190Z,4.13
2017-12-21T06:10:22.379Z,5.77
2017-12-21T06:12:51.602Z,4.97
2017-12-21T06:15:20.969Z,5.33
2017-12-21T06:17:51.076Z,4.97
2017-12-21T06:20:21.020Z,5.63
2017-12-21T06:22:49.309Z,4.20
2017-12-21T06:25:17.637Z,4.07
2017-12-21T06:27:45.977Z,4.20
2017-12-21T06:30:14.707Z,4.60
2017-12-21T06:32:43.589Z,4.47
2017-12-21T06:35:12.729Z,4.20
2017-12-21T06:37:41.073Z,7.50
2017-12-21T06:40:09.601Z,4.10
2017-12-21T06:42:39.041Z,4.10
2017-12-21T06:45:08.592Z,4.13
2017-12-21T06:47:37.369Z,4.40
2017-12-21T06:50:05.920Z,4.03
2017-12-21T06:52:34.632Z,4.10
2017-12-21T06:55:04.349Z,4.40
2017-12-21T06:57:33.282Z,4.00
2017-12-21T07:00:02.233Z,4.17
2017-12-21T07:02:31.659Z,4.40
2017-12-21T07:04:59.990Z,5.13
2017-12-21T07:07:28.597Z,4.33
2017-12-21T07:09:57.738Z,4.10
2017-12-21T07:12:26.838Z,4.87
2017-12-21T07:14:55.679Z,4.53
2017-12-21T07:17:24.274Z,4.47
2017-12-21T07:19:54.559Z,4.17
2017-12-21T07:22:23.699Z,4.00
2017-12-21T07:24:52.400Z,4.60
2017-12-21T07:27:21.306Z,4.93
2017-12-21T07:29:49.764Z,3.93
2017-12-21T07:32:19.312Z,4.40
2017-12-21T07:34:48.990Z,6.40
2017-12-21T07:37:19.390Z,4.03
2017-12-21T07:39:47.813Z,4.43
2017-12-21T07:42:16.500Z,5.00
2017-12-21T07:44:45.073Z,4.27
2017-12-21T07:47:13.320Z,3.70
2017-12-21T07:49:42.430Z,6.20
2017-12-21T07:52:11.040Z,4.77
2017-12-21T07:54:41.070Z,4.53
2017-12-21T07:57:09.420Z,4.07
2017-12-21T07:59:37.934Z,4.17
2017-12-21T08:02:08.261Z,4.80
2017-12-21T08:04:37.189Z,4.50
2017-12-21T08:07:06.560Z,6.10
2017-12-21T08:09:34.854Z,5.77
2017-12-21T08:12:03.870Z,5.37
2017-12-21T08:14:32.961Z,3.50
2017-12-21T08:17:01.390Z,3.93
2017-12-21T08:19:29.704Z,4.93
2017-12-21T08:21:58.418Z,4.40
2017-12-21T08:24:26.687Z,4.97
2017-12-21T08:26:55.790Z,5.40
2017-12-21T08:29:25.121Z,4.27
2017-12-21T08:31:53.581Z,5.13
2017-12-21T08:34:23.096Z,3.77
2017-12-21T08:36:51.464Z,3.73
2017-12-21T08:39:20.317Z,4.00
2017-12-21T08:41:49.417Z,3.50
2017-12-21T08:44:18.351Z,4.17
2017-12-21T08:46:46.867Z,3.30
2017-12-21T08:49:15.688Z,3.87
2017-12-21T08:51:44.308Z,6.73
2017-12-21T08:54:13.198Z,3.37
2017-12-21T08:56:41.585Z,4.30
2017-12-21T08:59:10.010Z,4.03
2017-12-21T09:01:39.470Z,6.50
2017-12-21T09:04:08.692Z,3.77
2017-12-21T09:06:37.946Z,4.23
2017-12-21T09:09:06.963Z,4.20
2017-12-21T09:11:36.250Z,5.93
2017-12-21T09:14:05.526Z,5.30
2017-12-21T09:16:34.695Z,4.23
2017-12-21T09:19:04.494Z,4.67
2017-12-21T09:21:33.762Z,3.23
2017-12-21T09:24:03.561Z,3.43
2017-12-21T09:26:33.563Z,3.07
2017-12-21T09:29:02.628Z,5.50
2017-12-21T09:31:32.199Z,3.57
2017-12-21T09:34:02.560Z,3.10
2017-12-21T09:36:31.106Z,5.10
2017-12-21T09:38:59.600Z,3.70
2017-12-21T09:41:28.175Z,3.23
2017-12-21T09:43:57.379Z,3.33
2017-12-21T09:46:26.818Z,3.30
2017-12-21T09:48:56.017Z,3.17
2017-12-21T09:51:25.766Z,3.37
2017-12-21T09:53:54.700Z,2.97
2017-12-21T09:56:24.309Z,4.63
2017-12-21T09:58:54.137Z,2.73
2017-12-21T10:01:23.823Z,4.07
2017-12-21T10:03:53.049Z,3.40
2017-12-21T15:05:34.196Z,62.00
2017-12-21T15:08:03.079Z,59.05
2017-12-21T15:10:31.960Z,59.78
2017-12-21T15:13:01.337Z,64.57
2017-12-21T15:15:31.329Z,61.92
2017-12-21T15:18:00.470Z,63.50
2017-12-21T15:20:28.750Z,63.90
2017-12-21T15:22:57.429Z,70.07
2017-12-21T15:25:27.309Z,79.05
2017-12-21T15:27:56.430Z,74.80
2017-12-21T15:30:25.690Z,80.90
2017-12-21T15:32:54.268Z,79.35
2017-12-21T15:35:23.688Z,72.03
2017-12-21T15:37:52.615Z,75.12
2017-12-21T15:40:22.500Z,83.50
2017-12-21T15:42:51.610Z,71.25
2017-12-21T15:45:20.286Z,71.53
2017-12-21T15:47:49.668Z,67.50
2017-12-21T15:50:18.089Z,74.25
2017-12-21T15:52:47.485Z,77.62
2017-12-21T15:55:16.383Z,76.70
2017-12-21T15:57:44.899Z,82.25
2017-12-21T16:00:13.458Z,83.93
2017-12-21T16:02:41.896Z,82.93
2017-12-21T16:05:11.024Z,74.47
2017-12-21T16:07:39.382Z,72.35
2017-12-21T16:10:08.183Z,85.38
2017-12-21T16:12:37.590Z,86.22
2017-12-21T16:15:07.664Z,75.95
2017-12-21T16:17:36.661Z,73.82
2017-12-21T16:20:05.332Z,70.25
2017-12-21T16:22:33.988Z,75.72
2017-12-21T16:25:02.274Z,78.85
2017-12-21T16:27:30.909Z,92.37
2017-12-21T16:29:59.897Z,96.00
2017-12-21T16:32:29.809Z,98.90
2017-12-21T16:34:58.394Z,114.70
2017-12-21T16:37:28.006Z,115.30
2017-12-21T16:39:57.024Z,119.28
2017-12-21T16:42:26.788Z,115.22
2017-12-21T16:44:55.931Z,129.20
2017-12-21T16:47:25.369Z,127.10
2017-12-21T16:49:54.264Z,119.35
2017-12-21T16:52:23.568Z,123.30
2017-12-21T16:54:52.420Z,110.47
2017-12-21T16:57:20.695Z,125.57
2017-12-21T16:59:49.342Z,128.73
2017-12-21T17:02:18.029Z,116.50
2017-12-21T17:04:46.616Z,108.93
2017-12-21T17:07:15.093Z,120.15
2017-12-21T17:09:43.445Z,121.00
2017-12-21T17:12:12.103Z,105.55
2017-12-21T17:14:41.375Z,105.07
2017-12-21T17:17:10.085Z,92.85
2017-12-21T17:19:39.100Z,109.55
2017-12-21T17:22:08.409Z,103.38
2017-12-21T17:24:37.274Z,114.35
2017-12-21T17:27:05.470Z,102.90
2017-12-21T17:29:34.733Z,94.32
2017-12-21T17:32:03.771Z,96.57
2017-12-21T17:34:32.671Z,97.00
2017-12-21T17:37:01.416Z,101.10
2017-12-21T17:39:30.179Z,102.75
2017-12-21T17:41:58.782Z,96.95
2017-12-21T17:44:28.331Z,77.75
2017-12-21T17:46:58.201Z,83.40
2017-12-21T17:49:26.618Z,98.72
2017-12-21T17:51:56.598Z,92.25
2017-12-21T17:54:26.511Z,101.57
2017-12-21T17:56:55.971Z,101.72
2017-12-21T17:59:24.799Z,95.95
2017-12-21T18:01:53.806Z,100.20
2017-12-21T18:04:22.067Z,114.05
2017-12-21T18:06:51.455Z,89.53
2017-12-21T18:09:20.767Z,99.45
2017-12-21T18:11:49.714Z,82.22
2017-12-21T18:14:18.557Z,99.78
2017-12-21T18:16:47.359Z,78.60
2017-12-21T18:19:16.057Z,81.43
2017-12-21T18:21:44.804Z,74.90
2017-12-21T18:24:13.650Z,73.18
2017-12-21T18:26:43.128Z,72.07
2017-12-21T18:29:11.681Z,75.85
2017-12-21T18:31:41.338Z,55.88
2017-12-21T18:34:10.633Z,67.43
2017-12-21T18:36:39.484Z,56.17
2017-12-21T18:39:08.095Z,78.45
2017-12-21T18:41:36.814Z,73.12
2017-12-21T18:44:05.710Z,80.82
2017-12-21T18:46:34.409Z,88.72
2017-12-21T18:49:04.259Z,99.05
2017-12-21T18:51:32.944Z,96.60
2017-12-21T18:54:02.901Z,97.85
2017-12-21T18:56:31.554Z,92.10
2017-12-21T18:59:01.395Z,89.93
2017-12-21T19:01:31.320Z,99.07
2017-12-21T19:03:59.750Z,99.05
2017-12-21T19:06:29.015Z,95.75
2017-12-21T19:08:58.132Z,92.97
2017-12-21T19:11:26.926Z,104.57
2017-12-21T19:13:56.383Z,86.65
2017-12-21T19:16:25.303Z,101.65
2017-12-21T19:18:53.688Z,98.78
2017-12-21T19:21:22.130Z,91.50
2017-12-21T19:23:51.890Z,93.70
2017-12-21T19:26:20.060Z,101.78
2017-12-21T19:28:48.953Z,90.47
2017-12-21T19:31:17.198Z,98.00
2017-12-21T19:33:45.471Z,96.97
2017-12-21T19:36:14.513Z,84.53
2017-12-21T19:38:44.442Z,89.53
2017-12-21T19:41:13.810Z,87.50
2017-12-21T19:43:43.105Z,88.80
2017-12-21T19:46:11.407Z,90.68
2017-12-21T19:48:40.280Z,92.90
2017-12-21T19:51:09.502Z,74.75
2017-12-21T19:53:37.824Z,72.05
2017-12-21T19:56:06.049Z,63.50
2017-12-21T19:58:35.178Z,75.47
2017-12-21T20:01:04.975Z,65.60
2017-12-21T20:03:34.030Z,70.60
2017-12-21T20:06:03.454Z,64.07
2017-12-21T20:08:31.889Z,70.35
2017-12-21T20:11:00.295Z,56.22
2017-12-21T20:13:28.598Z,70.85
2017-12-21T20:15:56.821Z,59.78
2017-12-21T20:18:25.542Z,69.20
2017-12-21T20:20:55.428Z,71.32
2017-12-21T20:23:24.373Z,62.47
2017-12-21T20:25:53.105Z,56.80
2017-12-21T20:28:22.770Z,61.72
2017-12-21T20:30:51.125Z,62.80
2017-12-21T20:33:20.215Z,68.05
2017-12-21T20:35:48.400Z,66.70
2017-12-21T20:38:18.093Z,62.35
2017-12-21T20:40:46.632Z,67.72
2017-12-21T20:43:15.097Z,75.68
2017-12-21T20:45:44.754Z,78.87
2017-12-21T20:48:13.680Z,79.28
2017-12-21T20:50:42.969Z,57.97
2017-12-21T20:53:12.919Z,78.22
2017-12-21T20:55:41.979Z,72.05
2017-12-21T20:58:10.639Z,71.80
2017-12-21T21:00:39.659Z,72.72
2017-12-21T21:03:08.377Z,66.05
2017-12-21T21:05:37.571Z,63.17
2017-12-21T21:08:06.663Z,62.10
2017-12-21T21:10:35.515Z,74.32
2017-12-21T21:13:04.566Z,65.60
2017-12-21T21:15:33.689Z,62.35
2017-12-21T21:18:01.888Z,76.90
2017-12-21T21:20:30.642Z,61.95
2017-12-21T21:23:00.094Z,55.45
2017-12-21T21:25:28.624Z,66.00
2017-12-21T21:27:57.678Z,61.05
2017-12-21T21:30:26.365Z,64.72
2017-12-21T21:32:54.664Z,69.43
2017-12-21T21:35:23.828Z,70.40
2017-12-21T21:37:52.012Z,77.90
2017-12-21T21:40:20.764Z,64.20
2017-12-21T21:42:49.035Z,67.82
2017-12-21T21:45:17.445Z,67.95
2017-12-21T21:47:46.737Z,65.62
2017-12-21T21:50:15.572Z,88.93
2017-12-21T21:52:44.145Z,73.37
2017-12-21T21:55:12.871Z,77.53
2017-12-21T21:57:41.742Z,65.87
2017-12-21T22:00:10.723Z,71.10
2017-12-21T22:02:39.842Z,71.60
2017-12-21T22:05:10.317Z,56.85
2017-12-21T22:07:39.348Z,72.07
2017-12-21T22:10:07.614Z,73.82
2017-12-21T22:12:37.610Z,59.33
2017-12-21T22:15:06.536Z,67.50
2017-12-21T22:17:35.800Z,79.70
2017-12-21T22:20:05.643Z,74.75
2017-12-21T22:22:34.430Z,76.35
2017-12-21T22:25:04.030Z,67.75
2017-12-21T22:27:32.786Z,71.00
2017-12-21T22:30:03.330Z,66.93
2017-12-21T22:32:31.882Z,70.70
2017-12-21T22:35:00.531Z,68.05
2017-12-21T22:37:29.169Z,68.28
2017-12-21T22:39:57.389Z,69.47
2017-12-21T22:42:26.737Z,67.60
2017-12-21T22:44:54.982Z,74.75
2017-12-21T22:47:23.788Z,69.97
2017-12-21T22:49:52.718Z,67.37
2017-12-21T22:52:22.107Z,77.35
2017-12-21T22:54:51.908Z,80.57
2017-12-21T22:57:21.023Z,76.43
2017-12-21T22:59:49.275Z,75.57
2017-12-21T23:02:18.240Z,75.57
2017-12-21T23:04:46.507Z,64.37
2017-12-21T23:07:14.773Z,65.50
2017-12-21T23:09:43.209Z,76.40
2017-12-21T23:12:11.761Z,86.47
2017-12-21T23:14:41.071Z,89.78
2017-12-21T23:17:10.722Z,99.50
2017-12-21T23:19:39.107Z,79.50
2017-12-21T23:22:08.462Z,68.60
2017-12-21T23:24:37.382Z,64.80
2017-12-21T23:27:05.880Z,76.40
2017-12-21T23:29:34.238Z,79.47
2017-12-21T23:32:02.771Z,77.75
2017-12-21T23:34:30.928Z,72.57
2017-12-21T23:37:00.136Z,66.15
2017-12-21T23:39:29.885Z,60.95
2017-12-21T23:41:58.850Z,61.53
2017-12-21T23:44:27.231Z,72.43
2017-12-21T23:46:55.563Z,56.25
2017-12-21T23:49:24.180Z,74.62
2017-12-21T23:51:53.550Z,69.60
2017-12-21T23:54:22.302Z,71.18
2017-12-21T23:56:50.553Z,81.90
2017-12-21T23:59:19.806Z,60.83
